Time;durP1;ratioP1;P1;durP2;ratioP2;P2;SDS_P1;SDS_P2;PMS_P1;PMS_P2;Temp;Humidity;BMP_temperature;BMP_pressure;BME280_temperature;BME280_humidity;BME280_pressure;Samples;Min_cycle;Max_cycle;Signal;HPM_P1;HPM_P2
2020/12/15 00:01:33;;;;;;;10.38;6.65;;;4.00;99.90;;;;;;5095411;28;20032;-83
2020/12/15 00:03:59;;;;;;;10.68;6.18;;;4.10;99.90;;;;;;5077247;28;20042;-83
2020/12/15 00:06:33;;;;;;;11.70;6.63;;;4.20;99.90;;;;;;5077150;28;20024;-83
2020/12/15 00:08:59;;;;;;;10.45;6.28;;;4.20;99.90;;;;;;5077139;28;20027;-84
2020/12/15 00:11:24;;;;;;;8.80;4.90;;;4.30;99.90;;;;;;5077084;28;20035;-83
2020/12/15 00:13:50;;;;;;;11.35;6.47;;;4.40;99.90;;;;;;5095226;28;20095;-83
2020/12/15 00:16:19;;;;;;;9.05;4.90;;;4.40;99.90;;;;;;5095061;28;20024;-83
2020/12/15 00:18:44;;;;;;;5.88;3.70;;;4.70;99.90;;;;;;5094873;28;20066;-82
2020/12/15 00:21:17;;;;;;;7.75;4.35;;;4.90;99.90;;;;;;5076812;28;20028;-83
2020/12/15 00:23:43;;;;;;;5.57;3.60;;;4.90;99.90;;;;;;5076826;28;20054;-83
2020/12/15 00:26:08;;;;;;;8.23;4.70;;;5.00;99.90;;;;;;5076703;28;20071;-83
2020/12/15 00:28:34;;;;;;;9.32;5.63;;;5.10;99.90;;;;;;5076760;28;20020;-83
2020/12/15 00:31:00;;;;;;;10.32;4.07;;;5.10;99.90;;;;;;5076670;28;20024;-83
2020/12/15 00:33:25;;;;;;;7.65;3.58;;;4.80;99.90;;;;;;5076653;28;20024;-83
2020/12/15 00:35:51;;;;;;;6.70;3.70;;;4.80;99.90;;;;;;5076529;28;20024;-83
2020/12/15 00:38:17;;;;;;;4.95;3.28;;;5.20;99.90;;;;;;5076478;28;20035;-82
2020/12/15 00:40:42;;;;;;;6.72;3.42;;;5.30;99.90;;;;;;5094624;28;20020;-83
2020/12/15 00:43:08;;;;;;;6.03;4.07;;;5.40;99.90;;;;;;5076442;28;20028;-83
2020/12/15 00:45:34;;;;;;;6.15;3.65;;;5.40;99.90;;;;;;5075963;28;20073;-83
2020/12/15 00:47:59;;;;;;;8.00;4.15;;;5.40;99.90;;;;;;5076337;28;20016;-83
2020/12/15 00:50:25;;;;;;;8.68;4.90;;;5.40;99.90;;;;;;5076300;28;20023;-83
2020/12/15 00:52:50;;;;;;;8.43;5.15;;;5.30;99.90;;;;;;5094461;28;20020;-83
2020/12/15 00:55:16;;;;;;;8.43;5.32;;;5.20;99.90;;;;;;5076273;28;20024;-83
2020/12/15 00:57:42;;;;;;;10.38;5.18;;;5.10;99.90;;;;;;5094617;28;20020;-83
2020/12/15 01:00:11;;;;;;;7.80;5.30;;;5.00;99.90;;;;;;5076161;28;20497;-83
2020/12/15 01:02:37;;;;;;;9.43;4.50;;;5.00;99.90;;;;;;5076065;28;20020;-83
2020/12/15 01:05:03;;;;;;;7.53;4.63;;;5.00;99.90;;;;;;5076030;28;20473;-83
2020/12/15 01:07:29;;;;;;;6.93;4.50;;;5.00;99.90;;;;;;5094212;28;20425;-83
2020/12/15 01:09:55;;;;;;;6.85;4.28;;;5.00;99.90;;;;;;5094116;28;20028;-83
2020/12/15 01:12:20;;;;;;;6.10;3.90;;;5.00;99.90;;;;;;5075960;28;20028;-83
2020/12/15 01:14:46;;;;;;;6.63;4.28;;;5.00;99.90;;;;;;5094329;28;20016;-83
2020/12/15 01:17:12;;;;;;;8.88;4.57;;;5.00;99.90;;;;;;5072301;28;20079;-83
2020/12/15 01:19:37;;;;;;;8.32;4.43;;;5.00;99.90;;;;;;5055879;28;20021;-83
2020/12/15 01:22:03;;;;;;;7.22;4.32;;;5.00;99.90;;;;;;5072470;28;20082;-83
2020/12/15 01:24:29;;;;;;;6.22;3.95;;;5.00;99.90;;;;;;5072458;28;20035;-83
2020/12/15 01:26:55;;;;;;;6.18;3.60;;;5.00;99.90;;;;;;5072361;28;20032;-83
2020/12/15 01:29:20;;;;;;;9.07;4.20;;;5.00;99.90;;;;;;5073951;28;20097;-83
2020/12/15 01:31:46;;;;;;;4.80;3.22;;;5.00;99.90;;;;;;5073637;28;20463;-83
2020/12/15 01:34:12;;;;;;;5.75;3.80;;;5.10;99.90;;;;;;5072359;28;20111;-83
2020/12/15 01:36:37;;;;;;;5.25;3.70;;;5.10;99.90;;;;;;5072355;28;20032;-83
2020/12/15 01:39:03;;;;;;;6.32;4.07;;;5.10;99.90;;;;;;5072301;28;20539;-83
2020/12/15 01:41:29;;;;;;;7.55;3.78;;;5.10;99.90;;;;;;5073537;28;20534;-83
2020/12/15 01:44:01;;;;;;;6.13;3.97;;;5.10;99.90;;;;;;5073509;28;20027;-83
2020/12/15 01:46:27;;;;;;;8.68;4.60;;;5.00;99.90;;;;;;5073373;28;20028;-83
2020/12/15 01:48:54;;;;;;;8.40;4.63;;;5.00;99.90;;;;;;5072165;28;20025;-84
2020/12/15 01:51:21;;;;;;;6.88;4.47;;;4.80;99.90;;;;;;5072134;28;20028;-83
2020/12/15 01:53:47;;;;;;;5.47;3.88;;;4.80;99.90;;;;;;5072132;28;20029;-83
2020/12/15 01:56:13;;;;;;;7.55;4.15;;;4.90;99.90;;;;;;5072115;28;20024;-83
2020/12/15 01:58:40;;;;;;;7.65;4.60;;;5.00;99.90;;;;;;5076132;28;20108;-83
2020/12/15 02:01:07;;;;;;;7.00;3.65;;;4.90;99.90;;;;;;5077488;28;20379;-83
2020/12/15 02:03:33;;;;;;;7.13;3.53;;;4.80;99.90;;;;;;5076183;28;20433;-83
2020/12/15 02:05:59;;;;;;;6.13;3.30;;;5.20;99.90;;;;;;5076074;28;20032;-83
2020/12/15 02:08:25;;;;;;;6.75;3.17;;;5.20;99.90;;;;;;5077609;28;20078;-83
2020/12/15 02:10:51;;;;;;;6.78;3.63;;;5.20;99.90;;;;;;5077347;28;20016;-83
2020/12/15 02:13:17;;;;;;;6.53;3.42;;;5.30;99.90;;;;;;5077277;28;20550;-83
2020/12/15 02:15:43;;;;;;;4.35;3.03;;;5.40;99.90;;;;;;5075859;28;20105;-83
2020/12/15 02:18:08;;;;;;;3.47;2.65;;;5.50;99.90;;;;;;5075715;28;20086;-83
2020/12/15 02:20:38;;;;;;;5.32;3.20;;;5.50;99.90;;;;;;5075903;28;20032;-83
2020/12/15 02:23:03;;;;;;;6.75;3.50;;;5.60;99.90;;;;;;5075814;28;20432;-83
2020/12/15 02:25:29;;;;;;;4.57;2.80;;;5.50;99.90;;;;;;5076972;28;20069;-83
2020/12/15 02:27:55;;;;;;;6.88;3.72;;;5.40;99.90;;;;;;5075750;28;20068;-83
2020/12/15 02:30:21;;;;;;;4.57;3.25;;;5.40;99.90;;;;;;5075686;28;20024;-83
2020/12/15 02:32:46;;;;;;;6.15;3.78;;;5.40;99.90;;;;;;5075635;28;20029;-83
2020/12/15 02:35:12;;;;;;;6.53;3.78;;;5.30;99.90;;;;;;5076862;28;20471;-83
2020/12/15 02:37:38;;;;;;;7.00;4.28;;;5.10;99.90;;;;;;5075500;28;20111;-83
2020/12/15 02:40:05;;;;;;;8.20;3.88;;;5.10;99.90;;;;;;5076994;28;20025;-83
2020/12/15 02:42:31;;;;;;;4.95;3.58;;;5.20;99.90;;;;;;5075428;28;20437;-83
2020/12/15 02:44:58;;;;;;;5.47;3.75;;;5.20;99.90;;;;;;5075329;28;20028;-83
2020/12/15 02:47:24;;;;;;;6.63;3.90;;;5.20;99.90;;;;;;5076655;28;20471;-83
2020/12/15 02:49:50;;;;;;;6.95;3.92;;;5.10;99.90;;;;;;5076827;28;20016;-83
2020/12/15 02:52:16;;;;;;;5.70;4.05;;;5.20;99.90;;;;;;5075241;28;20028;-83
2020/12/15 02:54:42;;;;;;;5.38;3.67;;;5.10;99.90;;;;;;5076468;28;20040;-83
2020/12/15 02:57:09;;;;;;;7.88;4.35;;;5.10;99.90;;;;;;5075156;28;20101;-83
2020/12/15 02:59:34;;;;;;;5.00;3.42;;;5.10;99.90;;;;;;5075169;28;20364;-83
2020/12/15 03:02:00;;;;;;;5.78;3.83;;;5.20;99.90;;;;;;5075061;28;20082;-83
2020/12/15 03:04:25;;;;;;;7.15;4.20;;;5.10;99.90;;;;;;5076291;28;20079;-83
2020/12/15 03:06:51;;;;;;;8.32;4.47;;;5.10;99.90;;;;;;5076500;28;20101;-83
2020/12/15 03:09:17;;;;;;;8.07;3.80;;;5.10;99.90;;;;;;5074662;28;20048;-83
2020/12/15 03:11:42;;;;;;;5.47;3.88;;;5.10;99.90;;;;;;5076189;28;20021;-83
2020/12/15 03:14:09;;;;;;;5.15;3.80;;;5.00;99.90;;;;;;5074877;28;20025;-83
2020/12/15 03:16:35;;;;;;;7.82;4.00;;;5.00;99.90;;;;;;5074908;28;20052;-83
2020/12/15 03:19:00;;;;;;;6.88;3.35;;;5.00;99.90;;;;;;5078118;28;20063;-83
2020/12/15 03:21:27;;;;;;;7.78;3.78;;;5.00;99.90;;;;;;5096217;28;20031;-83
2020/12/15 03:23:54;;;;;;;6.10;3.22;;;5.10;99.90;;;;;;5096163;28;20031;-83
2020/12/15 03:26:19;;;;;;;4.82;3.60;;;5.10;99.90;;;;;;5077919;28;20101;-83
2020/12/15 03:28:45;;;;;;;6.13;3.63;;;5.10;99.90;;;;;;5096651;28;20107;-83
2020/12/15 03:31:12;;;;;;;6.97;4.38;;;5.20;99.90;;;;;;5078285;28;20505;-83
2020/12/15 03:33:38;;;;;;;4.13;3.20;;;5.20;99.90;;;;;;5077846;28;20020;-83
2020/12/15 03:36:04;;;;;;;5.03;3.25;;;5.20;99.90;;;;;;5077752;28;20024;-83
2020/12/15 03:38:30;;;;;;;6.25;3.83;;;5.20;99.90;;;;;;5096191;28;20084;-83
2020/12/15 03:40:56;;;;;;;4.45;2.88;;;5.20;99.90;;;;;;5095896;28;20055;-83
2020/12/15 03:43:21;;;;;;;3.70;2.88;;;5.30;99.90;;;;;;5077615;28;20032;-83
2020/12/15 03:45:47;;;;;;;4.03;3.20;;;5.30;99.90;;;;;;5095957;28;20028;-83
2020/12/15 03:48:13;;;;;;;6.65;3.28;;;5.30;99.90;;;;;;5095983;28;20016;-83
2020/12/15 03:50:40;;;;;;;5.65;3.13;;;5.30;99.90;;;;;;5095682;28;20027;-83
2020/12/15 03:53:06;;;;;;;3.90;2.80;;;5.40;99.90;;;;;;5095873;28;20073;-83
2020/12/15 03:55:31;;;;;;;4.97;3.55;;;5.50;99.90;;;;;;5077757;28;20114;-83
2020/12/15 03:57:57;;;;;;;5.25;3.17;;;5.50;99.90;;;;;;5095505;28;20425;-83
2020/12/15 04:00:23;;;;;;;5.63;3.08;;;5.40;99.90;;;;;;5077326;28;20115;-84
2020/12/15 04:02:49;;;;;;;4.32;3.03;;;5.30;99.90;;;;;;5077237;28;20032;-83
2020/12/15 04:05:15;;;;;;;5.53;3.28;;;5.30;99.90;;;;;;5077136;28;20031;-83
2020/12/15 04:07:41;;;;;;;5.57;3.58;;;5.20;99.90;;;;;;5095299;28;20024;-83
2020/12/15 04:10:07;;;;;;;7.50;3.78;;;5.20;99.90;;;;;;5077160;28;20103;-83
2020/12/15 04:12:33;;;;;;;5.22;3.13;;;5.20;99.90;;;;;;5077138;28;20055;-83
2020/12/15 04:14:59;;;;;;;6.05;2.95;;;5.20;99.90;;;;;;5077073;28;20020;-83
2020/12/15 04:17:24;;;;;;;6.70;3.30;;;5.40;99.90;;;;;;5076697;28;20539;-82
2020/12/15 04:19:50;;;;;;;5.60;3.47;;;5.50;99.90;;;;;;5076515;28;20115;-83
2020/12/15 04:22:16;;;;;;;5.47;3.55;;;5.50;99.90;;;;;;5076668;28;20106;-83
2020/12/15 04:24:41;;;;;;;4.53;3.25;;;5.40;99.90;;;;;;5095010;28;20490;-83
2020/12/15 04:27:07;;;;;;;5.45;3.03;;;5.40;99.90;;;;;;5094884;28;20032;-83
2020/12/15 04:29:33;;;;;;;4.95;3.30;;;5.40;99.90;;;;;;5094901;28;20099;-83
2020/12/15 04:31:59;;;;;;;4.95;3.20;;;5.40;99.90;;;;;;5094854;28;20024;-83
2020/12/15 04:34:24;;;;;;;4.80;3.15;;;5.40;99.90;;;;;;5076672;28;20027;-83
2020/12/15 04:36:50;;;;;;;4.82;3.20;;;5.40;99.90;;;;;;5095432;28;20048;-83
2020/12/15 04:39:16;;;;;;;4.10;2.88;;;5.40;99.90;;;;;;5076502;28;20055;-83
2020/12/15 04:41:43;;;;;;;4.68;3.20;;;5.40;99.90;;;;;;5094687;28;20390;-83
2020/12/15 04:44:09;;;;;;;4.35;3.08;;;5.40;99.90;;;;;;5076485;28;20425;-83
2020/12/15 04:46:58;;;;;;;4.68;3.33;;;5.40;99.90;;;;;;5076321;28;20077;-83
2020/12/15 04:49:27;;;;;;;5.97;3.17;;;5.30;99.90;;;;;;5076384;28;20024;-84
2020/12/15 04:51:58;;;;;;;4.88;2.83;;;5.30;99.90;;;;;;5094730;28;20023;-83
2020/12/15 04:54:35;;;;;;;5.07;2.85;;;5.20;99.90;;;;;;5076297;28;20024;-83
2020/12/15 04:57:02;;;;;;;7.07;3.47;;;5.20;99.90;;;;;;5094375;28;20020;-83
2020/12/15 04:59:30;;;;;;;3.83;2.90;;;5.20;99.90;;;;;;5094631;28;20024;-83
2020/12/15 05:02:02;;;;;;;5.75;3.90;;;5.20;99.90;;;;;;5076118;28;20362;-83
2020/12/15 05:04:35;;;;;;;6.57;3.40;;;5.20;99.90;;;;;;5073778;28;20093;-84
2020/12/15 05:07:04;;;;;;;5.47;3.38;;;5.20;99.90;;;;;;5094443;28;20020;-84
2020/12/15 05:09:31;;;;;;;4.32;2.72;;;5.20;99.90;;;;;;5075981;28;20020;-84
2020/12/15 05:11:57;;;;;;;4.85;3.10;;;5.20;99.90;;;;;;5075854;28;20016;-83
2020/12/15 05:14:24;;;;;;;6.15;2.92;;;5.20;99.90;;;;;;5094063;28;20024;-83
2020/12/15 05:16:53;;;;;;;5.32;3.17;;;5.10;99.90;;;;;;5093656;28;20112;-82
2020/12/15 05:19:19;;;;;;;4.15;3.00;;;5.20;99.90;;;;;;5075953;28;20176;-83
2020/12/15 05:22:00;;;;;;;5.82;3.30;;;5.20;99.90;;;;;;5094043;28;20034;-83
2020/12/15 05:24:28;;;;;;;5.50;3.30;;;5.20;99.90;;;;;;5075921;28;20035;-84
2020/12/15 05:27:00;;;;;;;5.63;3.33;;;5.20;99.90;;;;;;5094105;28;20107;-83
2020/12/15 05:29:27;;;;;;;6.05;3.05;;;5.20;99.90;;;;;;5075783;28;20020;-83
2020/12/15 05:31:58;;;;;;;7.00;3.65;;;5.20;99.90;;;;;;5093892;28;20020;-83
2020/12/15 05:34:25;;;;;;;19.90;8.10;;;5.20;99.90;;;;;;5093880;28;20031;-83
2020/12/15 05:36:54;;;;;;;30.67;11.05;;;5.20;99.90;;;;;;5075735;28;20020;-83
2020/12/15 05:39:21;;;;;;;22.13;8.15;;;5.20;99.90;;;;;;5075636;28;20031;-83
2020/12/15 05:41:50;;;;;;;13.00;5.40;;;5.20;99.90;;;;;;5075721;28;20053;-83
2020/12/15 05:44:28;;;;;;;12.43;6.07;;;5.30;99.90;;;;;;5075595;28;20051;-83
2020/12/15 05:47:03;;;;;;;8.50;4.70;;;5.20;99.90;;;;;;5075749;28;20494;-83
2020/12/15 05:49:31;;;;;;;4.47;2.88;;;5.30;99.90;;;;;;5075469;28;20032;-83
2020/12/15 05:51:57;;;;;;;6.00;3.72;;;5.20;99.90;;;;;;5093590;28;20028;-83
2020/12/15 05:54:23;;;;;;;5.45;3.58;;;5.20;99.90;;;;;;5093608;28;20388;-83
2020/12/15 05:57:06;;;;;;;5.75;3.90;;;5.20;99.90;;;;;;5093661;28;20041;-82
2020/12/15 05:59:33;;;;;;;6.35;3.90;;;5.10;99.90;;;;;;5093697;28;20433;-82
2020/12/15 06:02:09;;;;;;;5.35;3.53;;;5.20;99.90;;;;;;5075467;28;20027;-82
2020/12/15 06:04:39;;;;;;;7.07;3.58;;;5.10;99.90;;;;;;5075511;28;20115;-82
2020/12/15 06:07:06;;;;;;;6.35;3.92;;;5.20;99.90;;;;;;5075294;28;20025;-82
2020/12/15 06:09:33;;;;;;;7.35;4.80;;;5.10;99.90;;;;;;5075351;28;20024;-82
2020/12/15 06:11:59;;;;;;;8.45;5.45;;;5.20;99.90;;;;;;5093477;28;20032;-83
2020/12/15 06:14:26;;;;;;;7.40;5.25;;;5.20;99.90;;;;;;5075359;28;20025;-82
2020/12/15 06:16:54;;;;;;;7.13;4.45;;;5.20;99.90;;;;;;5075182;28;20024;-82
2020/12/15 06:19:22;;;;;;;6.18;3.63;;;5.20;99.90;;;;;;5075345;28;20422;-82
2020/12/15 06:21:49;;;;;;;6.80;4.07;;;5.20;99.90;;;;;;5075381;28;20028;-82
2020/12/15 06:24:25;;;;;;;4.28;3.47;;;5.20;99.90;;;;;;5093401;28;20031;-83
2020/12/15 06:26:55;;;;;;;7.80;5.07;;;5.10;99.90;;;;;;5075210;28;20032;-82
2020/12/15 06:29:34;;;;;;;6.90;4.43;;;5.10;99.90;;;;;;5075187;28;20474;-82
2020/12/15 06:32:01;;;;;;;6.68;3.90;;;5.10;99.90;;;;;;5075244;28;20437;-82
2020/12/15 06:34:29;;;;;;;6.75;4.43;;;5.10;99.90;;;;;;5093251;28;20027;-83
2020/12/15 06:36:55;;;;;;;6.55;4.22;;;5.10;99.90;;;;;;5075172;28;20063;-82
2020/12/15 06:39:23;;;;;;;6.63;4.00;;;5.10;99.90;;;;;;5093315;28;20094;-82
2020/12/15 06:42:00;;;;;;;5.95;4.00;;;5.10;99.90;;;;;;5075109;28;20390;-82
2020/12/15 06:44:35;;;;;;;6.80;3.97;;;5.20;99.90;;;;;;5079568;28;20024;-83
2020/12/15 06:47:02;;;;;;;9.48;3.80;;;5.20;99.90;;;;;;5096963;28;20103;-83
2020/12/15 06:49:32;;;;;;;7.30;3.97;;;5.20;99.90;;;;;;5078706;28;20024;-82
2020/12/15 06:52:00;;;;;;;8.25;5.35;;;5.30;99.90;;;;;;5078722;28;20024;-82
2020/12/15 06:54:27;;;;;;;10.88;4.93;;;5.30;99.90;;;;;;5096918;28;20024;-83
2020/12/15 06:57:12;;;;;;;10.30;4.80;;;5.30;99.90;;;;;;5096762;28;20024;-83
2020/12/15 06:59:40;;;;;;;10.68;7.43;;;5.20;99.90;;;;;;5096730;28;20530;-81
2020/12/15 07:02:15;;;;;;;5.88;4.00;;;5.20;99.90;;;;;;5078504;28;20028;-81
2020/12/15 07:04:46;;;;;;;8.60;4.32;;;5.20;99.90;;;;;;5096698;28;20103;-82
2020/12/15 07:07:13;;;;;;;8.65;4.18;;;5.20;99.90;;;;;;5078426;28;20073;-82
2020/12/15 07:09:39;;;;;;;10.85;4.30;;;5.30;99.90;;;;;;5096866;28;20479;-81
2020/12/15 07:12:12;;;;;;;9.15;4.95;;;5.20;99.90;;;;;;5096563;28;20077;-81
2020/12/15 07:14:39;;;;;;;8.50;4.80;;;5.20;99.90;;;;;;5078300;28;20024;-81
2020/12/15 07:17:05;;;;;;;10.18;5.90;;;5.20;99.90;;;;;;5096215;28;20137;-81
2020/12/15 07:19:31;;;;;;;7.88;5.20;;;5.20;99.90;;;;;;5096388;28;20481;-81
2020/12/15 07:21:57;;;;;;;12.48;7.40;;;5.30;99.90;;;;;;5078149;28;20024;-81
2020/12/15 07:24:24;;;;;;;10.80;6.63;;;5.30;99.90;;;;;;5078089;28;20111;-80
2020/12/15 07:26:52;;;;;;;13.90;6.70;;;5.30;99.90;;;;;;5077972;28;20024;-81
2020/12/15 07:29:18;;;;;;;13.30;6.18;;;5.40;99.90;;;;;;5077944;28;20016;-81
2020/12/15 07:31:44;;;;;;;13.35;7.03;;;5.40;99.90;;;;;;5077912;28;20035;-81
2020/12/15 07:34:16;;;;;;;30.10;13.80;;;5.40;99.90;;;;;;5077885;28;20020;-80
2020/12/15 07:36:44;;;;;;;16.13;7.78;;;5.30;99.90;;;;;;5077802;28;20024;-81
2020/12/15 07:39:10;;;;;;;9.85;5.30;;;5.40;99.90;;;;;;5077867;28;20035;-82
2020/12/15 07:41:39;;;;;;;18.73;8.52;;;5.30;99.90;;;;;;5095975;28;20103;-82
2020/12/15 07:44:18;;;;;;;12.07;6.47;;;5.40;99.90;;;;;;5077727;28;20020;-81
2020/12/15 07:46:48;;;;;;;13.23;7.28;;;5.40;99.90;;;;;;5077679;28;20020;-81
2020/12/15 07:49:15;;;;;;;33.63;15.05;;;5.40;99.90;;;;;;5095750;28;20081;-81
2020/12/15 07:51:41;;;;;;;12.95;6.43;;;5.50;99.90;;;;;;5077605;28;20538;-81
2020/12/15 07:54:07;;;;;;;16.50;6.47;;;5.50;99.90;;;;;;5077579;28;20020;-81
2020/12/15 07:56:33;;;;;;;102.05;42.58;;;5.50;99.90;;;;;;5094834;28;20058;-81
2020/12/15 07:58:59;;;;;;;38.33;22.35;;;5.50;99.90;;;;;;5077400;28;20035;-81
2020/12/15 08:01:29;;;;;;;18.73;14.73;;;5.60;99.90;;;;;;5077790;28;20059;-81
2020/12/15 08:04:05;;;;;;;14.60;6.82;;;5.60;99.90;;;;;;5095959;28;20032;-81
2020/12/15 08:06:33;;;;;;;10.88;5.03;;;5.60;99.90;;;;;;5077527;28;20078;-82
2020/12/15 08:08:59;;;;;;;15.85;5.53;;;5.50;99.90;;;;;;5077488;28;20024;-82
2020/12/15 08:11:29;;;;;;;8.45;4.72;;;5.50;99.90;;;;;;5095379;28;20016;-81
2020/12/15 08:13:55;;;;;;;14.10;4.90;;;5.40;99.90;;;;;;5077165;28;20024;-81
2020/12/15 08:16:21;;;;;;;9.05;5.00;;;5.40;99.90;;;;;;5095235;28;20027;-81
2020/12/15 08:18:48;;;;;;;12.32;4.88;;;5.40;99.90;;;;;;5073591;28;20528;-82
2020/12/15 08:21:16;;;;;;;11.18;4.80;;;5.40;99.90;;;;;;5073520;28;20020;-80
2020/12/15 08:23:52;;;;;;;10.35;5.43;;;5.50;99.90;;;;;;5073566;28;20115;-81
2020/12/15 08:26:21;;;;;;;11.98;5.55;;;5.50;99.90;;;;;;5074809;28;20507;-82
2020/12/15 08:28:47;;;;;;;12.48;5.63;;;5.50;99.90;;;;;;5075103;28;20372;-82
2020/12/15 08:31:15;;;;;;;10.93;5.60;;;5.50;99.90;;;;;;5073434;28;20017;-81
2020/12/15 08:33:41;;;;;;;11.90;5.97;;;5.60;99.90;;;;;;5075010;28;20072;-82
2020/12/15 08:36:11;;;;;;;9.95;5.22;;;5.60;99.90;;;;;;5074874;28;20052;-81
2020/12/15 08:38:43;;;;;;;15.50;5.70;;;5.70;99.90;;;;;;5073330;28;20067;-81
2020/12/15 08:41:15;;;;;;;15.10;5.03;;;5.70;99.90;;;;;;5074529;28;20017;-81
2020/12/15 08:43:41;;;;;;;9.27;5.20;;;5.70;99.90;;;;;;5074480;28;20035;-81
2020/12/15 08:46:18;;;;;;;9.23;5.28;;;5.80;99.90;;;;;;5074410;28;20082;-81
2020/12/15 08:48:45;;;;;;;8.63;5.07;;;5.80;99.90;;;;;;5073186;28;20515;-81
2020/12/15 08:51:16;;;;;;;15.15;5.80;;;5.80;99.90;;;;;;5073067;28;20028;-82
2020/12/15 08:53:43;;;;;;;8.65;4.95;;;5.80;99.90;;;;;;5074326;28;20017;-81
2020/12/15 08:56:16;;;;;;;12.43;5.07;;;5.90;99.90;;;;;;5074334;28;20166;-82
2020/12/15 08:58:43;;;;;;;10.68;5.22;;;5.90;99.90;;;;;;5073095;28;20033;-81
2020/12/15 09:01:11;;;;;;;7.57;4.57;;;6.00;99.90;;;;;;5072827;28;20038;-81
2020/12/15 09:03:45;;;;;;;11.55;5.75;;;6.10;99.90;;;;;;5072864;28;20028;-81
2020/12/15 09:06:11;;;;;;;9.05;5.47;;;6.10;99.90;;;;;;5073957;28;20020;-81
2020/12/15 09:08:46;;;;;;;10.65;5.15;;;6.10;99.90;;;;;;5074483;28;20035;-81
2020/12/15 09:11:13;;;;;;;8.60;4.28;;;6.20;99.90;;;;;;5056244;28;20020;-81
2020/12/15 09:13:49;;;;;;;9.05;4.38;;;6.30;99.90;;;;;;5072665;28;20051;-81
2020/12/15 09:16:24;;;;;;;13.75;4.20;;;6.30;99.90;;;;;;5073875;28;20027;-81
2020/12/15 09:18:49;;;;;;;;;;;6.40;99.90;;;;;;5072941;28;20059;-81
2020/12/15 09:21:18;;;;;;;9.38;4.60;;;6.50;99.90;;;;;;5072606;28;19904;-81
2020/12/15 09:23:54;;;;;;;10.13;5.57;;;6.50;99.90;;;;;;5072555;28;20021;-81
2020/12/15 09:26:22;;;;;;;11.27;5.72;;;6.50;99.90;;;;;;5072536;28;20033;-81
2020/12/15 09:28:49;;;;;;;12.02;6.63;;;6.50;99.90;;;;;;5072482;28;20062;-81
2020/12/15 09:31:17;;;;;;;10.05;5.90;;;6.50;99.90;;;;;;5056918;28;20039;-81
2020/12/15 09:33:45;;;;;;;9.85;5.68;;;6.60;99.90;;;;;;5072411;28;20103;-77
2020/12/15 09:36:15;;;;;;;13.95;5.50;;;6.80;99.90;;;;;;5072650;28;20109;-82
2020/12/15 09:38:42;;;;;;;8.85;5.03;;;7.20;99.90;;;;;;5072612;28;20056;-82
2020/12/15 09:41:08;;;;;;;9.07;5.22;;;7.50;99.90;;;;;;5073940;28;20025;-82
2020/12/15 09:43:34;;;;;;;12.10;4.93;;;7.80;99.90;;;;;;5072417;28;20056;-82
2020/12/15 09:46:04;;;;;;;9.55;5.13;;;8.10;99.90;;;;;;5073455;28;20024;-81
2020/12/15 09:48:30;;;;;;;6.55;3.78;;;8.30;99.90;;;;;;5072320;28;20036;-81
2020/12/15 09:50:58;;;;;;;12.00;3.85;;;8.50;99.90;;;;;;5072348;28;20044;-81
2020/12/15 09:53:25;;;;;;;8.63;4.45;;;8.70;99.90;;;;;;5073546;28;20383;-81
2020/12/15 09:55:51;;;;;;;9.48;4.30;;;8.80;99.90;;;;;;5072235;28;20123;-82
2020/12/15 09:58:17;;;;;;;10.30;4.00;;;8.90;99.90;;;;;;5072334;28;20429;-82
2020/12/15 10:00:43;;;;;;;11.35;4.35;;;9.00;99.90;;;;;;5072279;28;20502;-82
2020/12/15 10:03:09;;;;;;;8.45;3.97;;;8.90;99.90;;;;;;5072146;28;20027;-82
2020/12/15 10:05:35;;;;;;;10.27;4.22;;;9.10;99.90;;;;;;5072071;28;20495;-82
2020/12/15 10:08:01;;;;;;;9.25;4.18;;;9.50;99.90;;;;;;5072260;28;20123;-82
2020/12/15 10:10:27;;;;;;;6.90;3.65;;;9.60;99.90;;;;;;5072149;28;20088;-82
2020/12/15 10:12:54;;;;;;;6.78;3.83;;;9.70;99.90;;;;;;5073949;28;20043;-82
2020/12/15 10:15:20;;;;;;;5.70;3.70;;;9.80;99.90;;;;;;5073310;28;20113;-82
2020/12/15 10:17:46;;;;;;;7.63;3.90;;;9.90;99.90;;;;;;5071905;28;20059;-82
2020/12/15 10:20:12;;;;;;;7.07;4.25;;;9.90;99.90;;;;;;5076804;28;20029;-81
2020/12/15 10:22:40;;;;;;;5.57;3.60;;;9.80;99.90;;;;;;5077270;28;20134;-82
2020/12/15 10:25:06;;;;;;;9.73;3.60;;;9.80;99.90;;;;;;5075762;28;20115;-82
2020/12/15 10:27:32;;;;;;;7.45;3.90;;;9.90;99.90;;;;;;5077042;28;20024;-82
2020/12/15 10:29:58;;;;;;;6.15;4.03;;;9.80;99.90;;;;;;5077082;28;20031;-82
2020/12/15 10:32:25;;;;;;;5.28;3.83;;;9.50;99.90;;;;;;5077018;28;20056;-82
2020/12/15 10:34:52;;;;;;;7.25;3.58;;;9.10;99.90;;;;;;5076925;28;20021;-82
2020/12/15 10:37:24;;;;;;;7.15;3.78;;;9.20;99.90;;;;;;5076949;28;20364;-83
2020/12/15 10:39:54;;;;;;;7.25;4.18;;;9.10;99.90;;;;;;5075650;28;20422;-82
2020/12/15 10:42:20;;;;;;;7.53;3.47;;;9.10;99.90;;;;;;5077322;28;20024;-83
2020/12/15 10:44:47;;;;;;;7.43;3.90;;;9.10;99.90;;;;;;5075504;28;20118;-83
2020/12/15 10:47:14;;;;;;;7.45;3.60;;;9.10;99.90;;;;;;5075424;28;20025;-83
2020/12/15 10:49:40;;;;;;;8.57;4.18;;;9.20;99.90;;;;;;5075355;28;20029;-83
2020/12/15 10:52:07;;;;;;;5.70;3.58;;;9.20;99.90;;;;;;5075342;28;20024;-83
2020/12/15 10:54:33;;;;;;;5.70;3.60;;;9.20;99.90;;;;;;5076575;28;20021;-83
2020/12/15 10:57:00;;;;;;;5.97;3.50;;;9.30;99.90;;;;;;5075410;28;20029;-83
2020/12/15 10:59:26;;;;;;;7.38;3.75;;;9.30;99.90;;;;;;5075360;28;20035;-82
2020/12/15 11:01:52;;;;;;;5.55;3.33;;;9.30;99.90;;;;;;5075249;28;20032;-83
2020/12/15 11:04:19;;;;;;;20.25;4.55;;;9.30;99.90;;;;;;5075127;28;20024;-83
2020/12/15 11:06:46;;;;;;;8.43;5.10;;;9.20;99.90;;;;;;5058316;28;20033;-82
2020/12/15 11:09:14;;;;;;;8.15;5.03;;;9.10;99.90;;;;;;5075007;28;20120;-82
2020/12/15 11:11:45;;;;;;;10.70;4.18;;;9.10;99.90;;;;;;5075024;28;20028;-82
2020/12/15 11:14:11;;;;;;;7.45;4.90;;;9.10;99.90;;;;;;5076795;28;20074;-82
2020/12/15 11:16:36;;;;;;;7.65;4.35;;;9.10;99.90;;;;;;5076150;28;20028;-82
2020/12/15 11:19:03;;;;;;;6.95;4.22;;;9.20;99.90;;;;;;5074710;28;20055;-82
2020/12/15 11:21:29;;;;;;;8.93;4.70;;;9.20;99.90;;;;;;5076131;28;20387;-81
2020/12/15 11:23:54;;;;;;;15.60;5.68;;;9.00;99.90;;;;;;5075984;28;20108;-81
2020/12/15 11:26:20;;;;;;;12.30;4.95;;;8.80;99.90;;;;;;5076351;28;20108;-79
2020/12/15 11:28:47;;;;;;;11.38;4.75;;;8.80;99.90;;;;;;5076147;28;20021;-82
2020/12/15 11:31:12;;;;;;;10.23;5.32;;;8.70;99.90;;;;;;5075847;28;20027;-80
2020/12/15 11:33:39;;;;;;;10.00;5.05;;;8.80;99.90;;;;;;5075981;28;20103;-79
2020/12/15 11:36:05;;;;;;;9.27;5.18;;;8.80;99.90;;;;;;5075846;28;20063;-80
2020/12/15 11:38:31;;;;;;;9.65;5.10;;;8.90;99.90;;;;;;5074816;28;20487;-79
2020/12/15 11:40:57;;;;;;;8.43;4.63;;;8.90;99.90;;;;;;5074527;28;20028;-80
2020/12/15 11:43:23;;;;;;;7.57;4.32;;;9.00;99.90;;;;;;5076454;28;20028;-80
2020/12/15 11:45:48;;;;;;;11.43;4.55;;;9.00;99.90;;;;;;5074747;28;20081;-80
2020/12/15 11:48:14;;;;;;;10.05;4.28;;;9.10;99.90;;;;;;5075676;28;20093;-80
2020/12/15 11:50:40;;;;;;;12.88;4.70;;;9.10;99.90;;;;;;5075654;28;20021;-80
2020/12/15 11:53:06;;;;;;;11.60;5.90;;;9.20;99.90;;;;;;5075815;28;20021;-81
2020/12/15 11:55:32;;;;;;;8.65;4.82;;;9.30;99.90;;;;;;5075598;28;20074;-80
2020/12/15 11:57:58;;;;;;;14.48;6.93;;;9.40;99.90;;;;;;5075467;28;20108;-80
2020/12/15 12:00:24;;;;;;;7.18;4.45;;;9.50;99.90;;;;;;5074192;28;20094;-80
2020/12/15 12:02:49;;;;;;;15.05;7.00;;;9.60;99.90;;;;;;5075778;28;20032;-80
2020/12/15 12:05:21;;;;;;;10.95;5.13;;;9.70;99.90;;;;;;5074105;28;20503;-80
2020/12/15 12:07:47;;;;;;;11.63;5.60;;;9.70;99.90;;;;;;5074081;28;20020;-80
2020/12/15 12:10:13;;;;;;;9.50;5.15;;;9.50;99.90;;;;;;5075206;28;20027;-80
2020/12/15 12:12:40;;;;;;;12.70;4.63;;;9.40;99.90;;;;;;5073896;28;20143;-80
2020/12/15 12:15:06;;;;;;;11.80;5.00;;;9.40;99.90;;;;;;5073907;28;20025;-81
2020/12/15 12:17:32;;;;;;;11.18;5.70;;;9.30;99.90;;;;;;5073511;28;20399;-80
2020/12/15 12:19:58;;;;;;;13.50;6.30;;;9.30;99.90;;;;;;5075034;28;20021;-80
2020/12/15 12:22:24;;;;;;;13.45;6.40;;;9.30;99.90;;;;;;5075118;28;20078;-80
2020/12/15 12:24:50;;;;;;;10.75;6.25;;;9.20;99.90;;;;;;5073626;28;20025;-80
2020/12/15 12:27:16;;;;;;;10.02;5.45;;;9.20;99.90;;;;;;5073770;28;20535;-79
2020/12/15 12:29:42;;;;;;;12.07;5.53;;;9.10;99.90;;;;;;5074326;28;20119;-80
2020/12/15 12:32:07;;;;;;;12.68;6.55;;;9.10;99.90;;;;;;5074739;28;20051;-80
2020/12/15 12:34:34;;;;;;;7.72;4.65;;;9.00;99.90;;;;;;5073689;28;20024;-80
2020/12/15 12:37:01;;;;;;;7.78;4.28;;;9.10;99.90;;;;;;5074667;28;20483;-80
2020/12/15 12:39:27;;;;;;;7.15;4.63;;;9.30;99.90;;;;;;5074654;28;20024;-80
2020/12/15 12:41:53;;;;;;;6.35;3.97;;;9.40;99.90;;;;;;5074084;28;20578;-81
2020/12/15 12:44:22;;;;;;;5.78;3.10;;;9.60;99.90;;;;;;5073268;28;20035;-80
2020/12/15 12:46:51;;;;;;;5.82;2.50;;;9.80;99.90;;;;;;5074924;28;20066;-80
2020/12/15 12:49:17;;;;;;;4.85;2.25;;;9.90;99.90;;;;;;5073142;28;20119;-80
2020/12/15 12:51:47;;;;;;;5.07;1.98;;;10.00;99.90;;;;;;5074463;28;20025;-80
2020/12/15 12:54:13;;;;;;;4.80;2.03;;;10.00;99.90;;;;;;5073007;28;20027;-80
2020/12/15 12:56:40;;;;;;;5.75;1.92;;;10.10;99.90;;;;;;5073048;28;20091;-80